<?xml version="1.0" encoding="UTF-8"?>
<gpx  version="1.1"  creator="Verlag Esterbauer" xmlns:xsi="http://www.w3.org/2001/XMLSchema-instance" xmlns="http://www.topografix.com/GPX/1/1"  xsi:schemaLocation="http://www.topografix.com/GPX/1/1 http://www.topografix.com/GPX/1/1/gpx.xsd">
<trk>
  <name>wf-gran_T02</name>
  <trkseg>
    <trkpt lat="27.966101" lon="-15.602206">
    <time>1971-01-13T12:01:19Z</time>
    </trkpt>
    <trkpt lat="27.966152" lon="-15.602366">
    <time>1971-01-13T12:01:34Z</time>
  <cmt>extensions = 1.67</cmt>
    </trkpt>
    <trkpt lat="27.966168" lon="-15.602525">
    <time>1971-01-13T12:01:48Z</time>
  <cmt>extensions = 1.97</cmt>
    </trkpt>
    <trkpt lat="27.966248" lon="-15.602684">
    <time>1971-01-13T12:02:04Z</time>
  <cmt>extensions = 1.38</cmt>
    </trkpt>
    <trkpt lat="27.966588" lon="-15.602968">
    <time>1971-01-13T12:02:47Z</time>
  <cmt>extensions = 1.26</cmt>
    </trkpt>
    <trkpt lat="27.966646" lon="-15.603054">
    <time>1971-01-13T12:02:56Z</time>
  <cmt>extensions = 1.36</cmt>
    </trkpt>
    <trkpt lat="27.96671" lon="-15.60318">
    <time>1971-01-13T12:03:09Z</time>
  <cmt>extensions = 1.43</cmt>
    </trkpt>
    <trkpt lat="27.966824" lon="-15.60332">
    <time>1971-01-13T12:03:26Z</time>
  <cmt>extensions = 1.34</cmt>
    </trkpt>
    <trkpt lat="27.96692" lon="-15.603392">
    <time>1971-01-13T12:03:37Z</time>
  <cmt>extensions = 1.28</cmt>
    </trkpt>
    <trkpt lat="27.966983" lon="-15.603804">
    <time>1971-01-13T12:04:14Z</time>
  <cmt>extensions = 1.63</cmt>
    </trkpt>
    <trkpt lat="27.967053" lon="-15.604035">
    <time>1971-01-13T12:04:36Z</time>
  <cmt>extensions = 1.52</cmt>
    </trkpt>
    <trkpt lat="27.967286" lon="-15.60437">
    <time>1971-01-13T12:05:14Z</time>
  <cmt>extensions = 1.86</cmt>
    </trkpt>
    <trkpt lat="27.967309" lon="-15.604482">
    <time>1971-01-13T12:05:24Z</time>
  <cmt>extensions = 1.38</cmt>
    </trkpt>
    <trkpt lat="27.967552" lon="-15.605123">
    <time>1971-01-13T12:06:25Z</time>
  <cmt>extensions = 1.42</cmt>
    </trkpt>
    <trkpt lat="27.967574" lon="-15.605283">
    <time>1971-01-13T12:06:40Z</time>
  <cmt>extensions = 0.76</cmt>
    </trkpt>
    <trkpt lat="27.967661" lon="-15.605388">
    <time>1971-01-13T12:06:52Z</time>
  <cmt>extensions = 0.75</cmt>
    </trkpt>
    <trkpt lat="27.967738" lon="-15.605457">
    <time>1971-01-13T12:07:02Z</time>
  <cmt>extensions = 0.84</cmt>
    </trkpt>
    <trkpt lat="27.967853" lon="-15.605611">
    <time>1971-01-13T12:07:20Z</time>
  <cmt>extensions = 1.10</cmt>
    </trkpt>
    <trkpt lat="27.967928" lon="-15.605777">
    <time>1971-01-13T12:07:36Z</time>
  <cmt>extensions = 0.90</cmt>
    </trkpt>
    <trkpt lat="27.967975" lon="-15.605942">
    <time>1971-01-13T12:07:52Z</time>
  <cmt>extensions = 1.14</cmt>
    </trkpt>
    <trkpt lat="27.968044" lon="-15.606053">
    <time>1971-01-13T12:08:04Z</time>
  <cmt>extensions = 1.03</cmt>
    </trkpt>
    <trkpt lat="27.968118" lon="-15.60625">
    <time>1971-01-13T12:08:23Z</time>
  <cmt>extensions = 1.00</cmt>
    </trkpt>
    <trkpt lat="27.968157" lon="-15.606458">
    <time>1971-01-13T12:08:41Z</time>
  <cmt>extensions = 1.10</cmt>
    </trkpt>
    <trkpt lat="27.968217" lon="-15.606567">
    <time>1971-01-13T12:08:53Z</time>
  <cmt>extensions = 1.05</cmt>
    </trkpt>
    <trkpt lat="27.968309" lon="-15.606675">
    <time>1971-01-13T12:09:06Z</time>
  <cmt>extensions = 1.05</cmt>
    </trkpt>
    <trkpt lat="27.968328" lon="-15.60688">
    <time>1971-01-13T12:09:24Z</time>
  <cmt>extensions = 0.97</cmt>
    </trkpt>
    <trkpt lat="27.968282" lon="-15.606982">
    <time>1971-01-13T12:09:34Z</time>
  <cmt>extensions = 0.75</cmt>
    </trkpt>
    <trkpt lat="27.968264" lon="-15.607084">
    <time>1971-01-13T12:09:43Z</time>
  <cmt>extensions = 0.60</cmt>
    </trkpt>
    <trkpt lat="27.968266" lon="-15.607223">
    <time>1971-01-13T12:09:56Z</time>
  <cmt>extensions = 0.48</cmt>
    </trkpt>
    <trkpt lat="27.968225" lon="-15.607334">
    <time>1971-01-13T12:10:06Z</time>
  <cmt>extensions = 0.58</cmt>
    </trkpt>
    <trkpt lat="27.968538" lon="-15.607974">
    <time>1971-01-13T12:11:11Z</time>
  <cmt>extensions = 0.99</cmt>
    </trkpt>
    <trkpt lat="27.968564" lon="-15.608131">
    <time>1971-01-13T12:11:25Z</time>
  <cmt>extensions = 0.75</cmt>
    </trkpt>
    <trkpt lat="27.968603" lon="-15.608244">
    <time>1971-01-13T12:11:36Z</time>
  <cmt>extensions = 0.80</cmt>
    </trkpt>
    <trkpt lat="27.968511" lon="-15.608477">
    <time>1971-01-13T12:11:58Z</time>
  <cmt>extensions = 0.93</cmt>
    </trkpt>
    <trkpt lat="27.968608" lon="-15.608752">
    <time>1971-01-13T12:12:25Z</time>
  <cmt>extensions = 1.00</cmt>
    </trkpt>
    <trkpt lat="27.968967" lon="-15.609042">
    <time>1971-01-13T12:13:09Z</time>
  <cmt>extensions = 1.33</cmt>
    </trkpt>
    <trkpt lat="27.969091" lon="-15.609107">
    <time>1971-01-13T12:13:22Z</time>
  <cmt>extensions = 1.27</cmt>
    </trkpt>
    <trkpt lat="27.969185" lon="-15.60921">
    <time>1971-01-13T12:13:35Z</time>
  <cmt>extensions = 0.81</cmt>
    </trkpt>
    <trkpt lat="27.969276" lon="-15.609257">
    <time>1971-01-13T12:13:45Z</time>
  <cmt>extensions = 0.93</cmt>
    </trkpt>
    <trkpt lat="27.969399" lon="-15.609284">
    <time>1971-01-13T12:13:58Z</time>
  <cmt>extensions = 0.82</cmt>
    </trkpt>
    <trkpt lat="27.969499" lon="-15.609349">
    <time>1971-01-13T12:14:09Z</time>
  <cmt>extensions = 1.43</cmt>
    </trkpt>
    <trkpt lat="27.969574" lon="-15.609384">
    <time>1971-01-13T12:14:18Z</time>
  <cmt>extensions = 0.56</cmt>
    </trkpt>
    <trkpt lat="27.970209" lon="-15.609926">
    <time>1971-01-13T12:15:37Z</time>
  <cmt>extensions = 1.28</cmt>
    </trkpt>
    <trkpt lat="27.970286" lon="-15.610024">
    <time>1971-01-13T12:15:49Z</time>
  <cmt>extensions = 0.92</cmt>
    </trkpt>
    <trkpt lat="27.970444" lon="-15.610159">
    <time>1971-01-13T12:16:08Z</time>
  <cmt>extensions = 1.22</cmt>
    </trkpt>
    <trkpt lat="27.970506" lon="-15.610326">
    <time>1971-01-13T12:16:24Z</time>
  <cmt>extensions = 1.16</cmt>
    </trkpt>
    <trkpt lat="27.970721" lon="-15.610473">
    <time>1971-01-13T12:16:49Z</time>
  <cmt>extensions = 1.12</cmt>
    </trkpt>
    <trkpt lat="27.970852" lon="-15.610506">
    <time>1971-01-13T12:17:03Z</time>
  <cmt>extensions = 2.31</cmt>
    </trkpt>
    <trkpt lat="27.970967" lon="-15.610635">
    <time>1971-01-13T12:17:19Z</time>
  <cmt>extensions = 1.13</cmt>
    </trkpt>
    <trkpt lat="27.97111" lon="-15.610758">
    <time>1971-01-13T12:17:37Z</time>
  <cmt>extensions = 1.11</cmt>
    </trkpt>
    <trkpt lat="27.971165" lon="-15.610673">
    <time>1971-01-13T12:17:46Z</time>
  <cmt>extensions = 0.86</cmt>
    </trkpt>
    <trkpt lat="27.971475" lon="-15.610498">
    <time>1971-01-13T12:18:21Z</time>
  <cmt>extensions = 0.38</cmt>
    </trkpt>
    <trkpt lat="27.971616" lon="-15.610519">
    <time>1971-01-13T12:18:35Z</time>
  <cmt>extensions = 1.22</cmt>
    </trkpt>
    <trkpt lat="27.971859" lon="-15.610619">
    <time>1971-01-13T12:19:01Z</time>
  <cmt>extensions = 1.81</cmt>
    </trkpt>
    <trkpt lat="27.972053" lon="-15.61065">
    <time>1971-01-13T12:19:20Z</time>
  <cmt>extensions = 1.15</cmt>
    </trkpt>
    <trkpt lat="27.97224" lon="-15.61075">
    <time>1971-01-13T12:19:41Z</time>
  <cmt>extensions = 2.50</cmt>
    </trkpt>
    <trkpt lat="27.972339" lon="-15.610891">
    <time>1971-01-13T12:19:57Z</time>
  <cmt>extensions = 1.50</cmt>
    </trkpt>
    <trkpt lat="27.972488" lon="-15.610954">
    <time>1971-01-13T12:20:13Z</time>
  <cmt>extensions = 1.00</cmt>
    </trkpt>
    <trkpt lat="27.972536" lon="-15.611047">
    <time>1971-01-13T12:20:22Z</time>
  <cmt>extensions = 1.13</cmt>
    </trkpt>
    <trkpt lat="27.972555" lon="-15.61123">
    <time>1971-01-13T12:20:38Z</time>
  <cmt>extensions = 1.39</cmt>
    </trkpt>
    <trkpt lat="27.972632" lon="-15.611354">
    <time>1971-01-13T12:20:52Z</time>
  <cmt>extensions = 0.99</cmt>
    </trkpt>
    <trkpt lat="27.972866" lon="-15.611597">
    <time>1971-01-13T12:21:24Z</time>
  <cmt>extensions = 1.67</cmt>
    </trkpt>
    <trkpt lat="27.973188" lon="-15.611812">
    <time>1971-01-13T12:22:01Z</time>
  <cmt>extensions = 0.76</cmt>
    </trkpt>
    <trkpt lat="27.973066" lon="-15.612072">
    <time>1971-01-13T12:22:27Z</time>
  <cmt>extensions = 1.45</cmt>
    </trkpt>
    <trkpt lat="27.972769" lon="-15.612384">
    <time>1971-01-13T12:23:07Z</time>
  <cmt>extensions = 1.12</cmt>
    </trkpt>
    <trkpt lat="27.972676" lon="-15.612526">
    <time>1971-01-13T12:23:23Z</time>
  <cmt>extensions = 1.24</cmt>
    </trkpt>
    <trkpt lat="27.972571" lon="-15.612602">
    <time>1971-01-13T12:23:35Z</time>
  <cmt>extensions = 0.99</cmt>
    </trkpt>
    <trkpt lat="27.972555" lon="-15.612736">
    <time>1971-01-13T12:23:47Z</time>
  <cmt>extensions = 1.01</cmt>
    </trkpt>
    <trkpt lat="27.972522" lon="-15.612862">
    <time>1971-01-13T12:23:59Z</time>
  <cmt>extensions = 1.17</cmt>
    </trkpt>
    <trkpt lat="27.972278" lon="-15.613254">
    <time>1971-01-13T12:24:41Z</time>
  <cmt>extensions = 0.97</cmt>
    </trkpt>
    <trkpt lat="27.972278" lon="-15.613409">
    <time>1971-01-13T12:24:55Z</time>
  <cmt>extensions = 0.85</cmt>
    </trkpt>
    <trkpt lat="27.972324" lon="-15.613526">
    <time>1971-01-13T12:25:06Z</time>
  <cmt>extensions = 1.28</cmt>
    </trkpt>
    <trkpt lat="27.972287" lon="-15.613682">
    <time>1971-01-13T12:25:21Z</time>
  <cmt>extensions = 1.48</cmt>
    </trkpt>
    <trkpt lat="27.971849" lon="-15.614245">
    <time>1971-01-13T12:26:27Z</time>
  <cmt>extensions = 1.42</cmt>
    </trkpt>
    <trkpt lat="27.971825" lon="-15.614462">
    <time>1971-01-13T12:26:46Z</time>
  <cmt>extensions = 1.39</cmt>
    </trkpt>
    <trkpt lat="27.97158" lon="-15.614514">
    <time>1971-01-13T12:27:11Z</time>
  <cmt>extensions = 1.44</cmt>
    </trkpt>
    <trkpt lat="27.971252" lon="-15.614645">
    <time>1971-01-13T12:27:46Z</time>
  <cmt>extensions = 1.29</cmt>
    </trkpt>
    <trkpt lat="27.971106" lon="-15.614515">
    <time>1971-01-13T12:28:04Z</time>
  <cmt>extensions = 1.29</cmt>
    </trkpt>
    <trkpt lat="27.971018" lon="-15.614543">
    <time>1971-01-13T12:28:13Z</time>
  <cmt>extensions = 1.13</cmt>
    </trkpt>
    <trkpt lat="27.970927" lon="-15.614528">
    <time>1971-01-13T12:28:23Z</time>
  <cmt>extensions = 1.14</cmt>
    </trkpt>
    <trkpt lat="27.97052" lon="-15.614623">
    <time>1971-01-13T12:29:04Z</time>
  <cmt>extensions = 1.24</cmt>
    </trkpt>
    <trkpt lat="27.970366" lon="-15.614632">
    <time>1971-01-13T12:29:19Z</time>
  <cmt>extensions = 1.37</cmt>
    </trkpt>
    <trkpt lat="27.970263" lon="-15.614621">
    <time>1971-01-13T12:29:30Z</time>
  <cmt>extensions = 1.40</cmt>
    </trkpt>
    <trkpt lat="27.970197" lon="-15.61457">
    <time>1971-01-13T12:29:38Z</time>
  <cmt>extensions = 1.11</cmt>
    </trkpt>
    <trkpt lat="27.969847" lon="-15.61466">
    <time>1971-01-13T12:30:14Z</time>
  <cmt>extensions = 1.53</cmt>
    </trkpt>
    <trkpt lat="27.969661" lon="-15.614814">
    <time>1971-01-13T12:30:37Z</time>
  <cmt>extensions = 1.11</cmt>
    </trkpt>
    <trkpt lat="27.969526" lon="-15.614974">
    <time>1971-01-13T12:30:56Z</time>
  <cmt>extensions = 1.04</cmt>
    </trkpt>
    <trkpt lat="27.969375" lon="-15.615042">
    <time>1971-01-13T12:31:12Z</time>
  <cmt>extensions = 0.51</cmt>
    </trkpt>
    <trkpt lat="27.969246" lon="-15.614989">
    <time>1971-01-13T12:31:26Z</time>
  <cmt>extensions = 0.90</cmt>
    </trkpt>
    <trkpt lat="27.969413" lon="-15.615035">
    <time>1971-01-13T12:31:43Z</time>
  <cmt>extensions = 1.22</cmt>
    </trkpt>
    <trkpt lat="27.969514" lon="-15.614987">
    <time>1971-01-13T12:31:54Z</time>
  <cmt>extensions = 1.02</cmt>
    </trkpt>
    <trkpt lat="27.969379" lon="-15.61521">
    <time>1971-01-13T12:32:18Z</time>
  <cmt>extensions = 1.11</cmt>
    </trkpt>
    <trkpt lat="27.969213" lon="-15.615273">
    <time>1971-01-13T12:32:35Z</time>
  <cmt>extensions = 1.22</cmt>
    </trkpt>
    <trkpt lat="27.96904" lon="-15.615298">
    <time>1971-01-13T12:32:53Z</time>
  <cmt>extensions = 1.52</cmt>
    </trkpt>
    <trkpt lat="27.968426" lon="-15.615622">
    <time>1971-01-13T12:34:00Z</time>
  <cmt>extensions = 1.26</cmt>
    </trkpt>
    <trkpt lat="27.967748" lon="-15.616108">
    <time>1971-01-13T12:35:21Z</time>
  <cmt>extensions = 1.24</cmt>
    </trkpt>
    <trkpt lat="27.967658" lon="-15.615949">
    <time>1971-01-13T12:35:37Z</time>
  <cmt>extensions = 1.01</cmt>
    </trkpt>
    <trkpt lat="27.967545" lon="-15.615848">
    <time>1971-01-13T12:35:52Z</time>
  <cmt>extensions = 0.85</cmt>
    </trkpt>
    <trkpt lat="27.967434" lon="-15.615879">
    <time>1971-01-13T12:36:03Z</time>
  <cmt>extensions = 0.57</cmt>
    </trkpt>
    <trkpt lat="27.967129" lon="-15.615846">
    <time>1971-01-13T12:36:34Z</time>
  <cmt>extensions = 1.00</cmt>
    </trkpt>
    <trkpt lat="27.967052" lon="-15.615798">
    <time>1971-01-13T12:36:42Z</time>
  <cmt>extensions = 1.21</cmt>
    </trkpt>
    <trkpt lat="27.966779" lon="-15.615702">
    <time>1971-01-13T12:37:11Z</time>
  <cmt>extensions = 1.59</cmt>
    </trkpt>
    <trkpt lat="27.966722" lon="-15.615603">
    <time>1971-01-13T12:37:21Z</time>
  <cmt>extensions = 1.06</cmt>
    </trkpt>
    <trkpt lat="27.966203" lon="-15.61554">
    <time>1971-01-13T12:38:13Z</time>
  <cmt>extensions = 1.09</cmt>
    </trkpt>
    <trkpt lat="27.966068" lon="-15.615698">
    <time>1971-01-13T12:38:33Z</time>
  <cmt>extensions = 0.77</cmt>
    </trkpt>
    <trkpt lat="27.965984" lon="-15.615646">
    <time>1971-01-13T12:38:42Z</time>
  <cmt>extensions = 0.71</cmt>
    </trkpt>
    <trkpt lat="27.965746" lon="-15.615564">
    <time>1971-01-13T12:39:07Z</time>
  <cmt>extensions = 0.96</cmt>
    </trkpt>
    <trkpt lat="27.965594" lon="-15.615347">
    <time>1971-01-13T12:39:32Z</time>
  <cmt>extensions = 1.21</cmt>
    </trkpt>
    <trkpt lat="27.965472" lon="-15.615294">
    <time>1971-01-13T12:39:45Z</time>
  <cmt>extensions = 1.09</cmt>
    </trkpt>
    <trkpt lat="27.965393" lon="-15.615437">
    <time>1971-01-13T12:39:59Z</time>
  <cmt>extensions = 0.98</cmt>
    </trkpt>
    <trkpt lat="27.965351" lon="-15.615598">
    <time>1971-01-13T12:40:14Z</time>
  <cmt>extensions = 0.86</cmt>
    </trkpt>
    <trkpt lat="27.965241" lon="-15.615599">
    <time>1971-01-13T12:40:25Z</time>
  <cmt>extensions = 0.82</cmt>
    </trkpt>
    <trkpt lat="27.965163" lon="-15.615676">
    <time>1971-01-13T12:40:36Z</time>
  <cmt>extensions = 0.82</cmt>
    </trkpt>
    <trkpt lat="27.965089" lon="-15.615826">
    <time>1971-01-13T12:40:51Z</time>
  <cmt>extensions = 0.84</cmt>
    </trkpt>
    <trkpt lat="27.964972" lon="-15.615869">
    <time>1971-01-13T12:41:03Z</time>
  <cmt>extensions = 0.76</cmt>
    </trkpt>
    <trkpt lat="27.964886" lon="-15.615882">
    <time>1971-01-13T12:41:12Z</time>
  <cmt>extensions = 1.14</cmt>
    </trkpt>
    <trkpt lat="27.964697" lon="-15.615884">
    <time>1971-01-13T12:41:31Z</time>
  <cmt>extensions = 1.15</cmt>
    </trkpt>
    <trkpt lat="27.964487" lon="-15.615786">
    <time>1971-01-13T12:41:53Z</time>
  <cmt>extensions = 0.85</cmt>
    </trkpt>
    <trkpt lat="27.964437" lon="-15.615858">
    <time>1971-01-13T12:42:01Z</time>
  <cmt>extensions = 0.47</cmt>
    </trkpt>
    <trkpt lat="27.964406" lon="-15.615944">
    <time>1971-01-13T12:42:10Z</time>
  <cmt>extensions = 1.30</cmt>
    </trkpt>
    <trkpt lat="27.964354" lon="-15.616025">
    <time>1971-01-13T12:42:18Z</time>
  <cmt>extensions = 0.77</cmt>
    </trkpt>
    <trkpt lat="27.964463" lon="-15.616171">
    <time>1971-01-13T12:42:35Z</time>
  <cmt>extensions = 0.64</cmt>
    </trkpt>
    <trkpt lat="27.964422" lon="-15.616354">
    <time>1971-01-13T12:42:52Z</time>
  <cmt>extensions = 1.03</cmt>
    </trkpt>
    <trkpt lat="27.964319" lon="-15.616368">
    <time>1971-01-13T12:43:02Z</time>
  <cmt>extensions = 1.28</cmt>
    </trkpt>
    <trkpt lat="27.964179" lon="-15.616465">
    <time>1971-01-13T12:43:19Z</time>
  <cmt>extensions = 1.02</cmt>
    </trkpt>
    <trkpt lat="27.96411" lon="-15.616594">
    <time>1971-01-13T12:43:32Z</time>
  <cmt>extensions = 1.44</cmt>
    </trkpt>
    <trkpt lat="27.963975" lon="-15.616696">
    <time>1971-01-13T12:43:48Z</time>
  <cmt>extensions = 1.04</cmt>
    </trkpt>
    <trkpt lat="27.9639" lon="-15.616817">
    <time>1971-01-13T12:44:01Z</time>
  <cmt>extensions = 1.06</cmt>
    </trkpt>
    <trkpt lat="27.963359" lon="-15.61715">
    <time>1971-01-13T12:45:03Z</time>
  <cmt>extensions = 1.52</cmt>
    </trkpt>
    <trkpt lat="27.963234" lon="-15.617276">
    <time>1971-01-13T12:45:19Z</time>
  <cmt>extensions = 0.75</cmt>
    </trkpt>
    <trkpt lat="27.962658" lon="-15.618187">
    <time>1971-01-13T12:46:58Z</time>
  <cmt>extensions = 1.56</cmt>
    </trkpt>
    <trkpt lat="27.962412" lon="-15.618299">
    <time>1971-01-13T12:47:25Z</time>
  <cmt>extensions = 0.85</cmt>
    </trkpt>
    <trkpt lat="27.962156" lon="-15.618624">
    <time>1971-01-13T12:48:03Z</time>
  <cmt>extensions = 1.14</cmt>
    </trkpt>
    <trkpt lat="27.962104" lon="-15.618766">
    <time>1971-01-13T12:48:17Z</time>
  <cmt>extensions = 0.89</cmt>
    </trkpt>
    <trkpt lat="27.962006" lon="-15.618885">
    <time>1971-01-13T12:48:31Z</time>
  <cmt>extensions = 0.89</cmt>
    </trkpt>
    <trkpt lat="27.961957" lon="-15.618974">
    <time>1971-01-13T12:48:41Z</time>
  <cmt>extensions = 0.94</cmt>
    </trkpt>
    <trkpt lat="27.961908" lon="-15.619124">
    <time>1971-01-13T12:48:55Z</time>
  <cmt>extensions = 1.21</cmt>
    </trkpt>
    <trkpt lat="27.96178" lon="-15.619324">
    <time>1971-01-13T12:49:16Z</time>
  <cmt>extensions = 1.88</cmt>
    </trkpt>
    <trkpt lat="27.961747" lon="-15.619551">
    <time>1971-01-13T12:49:37Z</time>
  <cmt>extensions = 1.41</cmt>
    </trkpt>
    <trkpt lat="27.961746" lon="-15.619758">
    <time>1971-01-13T12:49:55Z</time>
  <cmt>extensions = 1.09</cmt>
    </trkpt>
    <trkpt lat="27.96163" lon="-15.620202">
    <time>1971-01-13T12:50:36Z</time>
  <cmt>extensions = 0.85</cmt>
    </trkpt>
    <trkpt lat="27.961626" lon="-15.620308">
    <time>1971-01-13T12:50:45Z</time>
  <cmt>extensions = 1.16</cmt>
    </trkpt>
    <trkpt lat="27.961606" lon="-15.620408">
    <time>1971-01-13T12:50:55Z</time>
  <cmt>extensions = 0.78</cmt>
    </trkpt>
    <trkpt lat="27.961634" lon="-15.620549">
    <time>1971-01-13T12:51:07Z</time>
  <cmt>extensions = 1.84</cmt>
    </trkpt>
    <trkpt lat="27.961764" lon="-15.62078">
    <time>1971-01-13T12:51:31Z</time>
  <cmt>extensions = 0.48</cmt>
    </trkpt>
    <trkpt lat="27.961802" lon="-15.620904">
    <time>1971-01-13T12:51:43Z</time>
  <cmt>extensions = 0.76</cmt>
    </trkpt>
    <trkpt lat="27.961663" lon="-15.621149">
    <time>1971-01-13T12:52:09Z</time>
  <cmt>extensions = 0.95</cmt>
    </trkpt>
    <trkpt lat="27.961595" lon="-15.621505">
    <time>1971-01-13T12:52:41Z</time>
  <cmt>extensions = 0.95</cmt>
    </trkpt>
    <trkpt lat="27.961618" lon="-15.621606">
    <time>1971-01-13T12:52:50Z</time>
  <cmt>extensions = 0.54</cmt>
    </trkpt>
    <trkpt lat="27.961623" lon="-15.62177">
    <time>1971-01-13T12:53:05Z</time>
  <cmt>extensions = 0.94</cmt>
    </trkpt>
    <trkpt lat="27.961613" lon="-15.62187">
    <time>1971-01-13T12:53:14Z</time>
  <cmt>extensions = 0.76</cmt>
    </trkpt>
    <trkpt lat="27.961518" lon="-15.621896">
    <time>1971-01-13T12:53:23Z</time>
  <cmt>extensions = 0.41</cmt>
    </trkpt>
    <trkpt lat="27.961544" lon="-15.622013">
    <time>1971-01-13T12:53:34Z</time>
  <cmt>extensions = 0.52</cmt>
    </trkpt>
    <trkpt lat="27.961543" lon="-15.622154">
    <time>1971-01-13T12:53:47Z</time>
  <cmt>extensions = 0.87</cmt>
    </trkpt>
    <trkpt lat="27.961514" lon="-15.622326">
    <time>1971-01-13T12:54:02Z</time>
  <cmt>extensions = 0.86</cmt>
    </trkpt>
    <trkpt lat="27.961303" lon="-15.622668">
    <time>1971-01-13T12:54:39Z</time>
  <cmt>extensions = 0.36</cmt>
    </trkpt>
    <trkpt lat="27.96122" lon="-15.622717">
    <time>1971-01-13T12:54:48Z</time>
  <cmt>extensions = 0.35</cmt>
    </trkpt>
    <trkpt lat="27.961131" lon="-15.62271">
    <time>1971-01-13T12:54:57Z</time>
  <cmt>extensions = 0.61</cmt>
    </trkpt>
    <trkpt lat="27.961101" lon="-15.622806">
    <time>1971-01-13T12:55:06Z</time>
  <cmt>extensions = 0.46</cmt>
    </trkpt>
    <trkpt lat="27.960999" lon="-15.622821">
    <time>1971-01-13T12:55:16Z</time>
  <cmt>extensions = 0.72</cmt>
    </trkpt>
    <trkpt lat="27.960928" lon="-15.622863">
    <time>1971-01-13T12:55:24Z</time>
  <cmt>extensions = 0.81</cmt>
    </trkpt>
    <trkpt lat="27.960494" lon="-15.623211">
    <time>1971-01-13T12:56:17Z</time>
  <cmt>extensions = 0.96</cmt>
    </trkpt>
    <trkpt lat="27.960411" lon="-15.623448">
    <time>1971-01-13T12:56:40Z</time>
  <cmt>extensions = 1.00</cmt>
    </trkpt>
    <trkpt lat="27.960362" lon="-15.623731">
    <time>1971-01-13T12:57:06Z</time>
  <cmt>extensions = 0.77</cmt>
    </trkpt>
    <trkpt lat="27.960224" lon="-15.62409">
    <time>1971-01-13T12:57:40Z</time>
  <cmt>extensions = 1.06</cmt>
    </trkpt>
    <trkpt lat="27.960147" lon="-15.624151">
    <time>1971-01-13T12:57:50Z</time>
  <cmt>extensions = 0.59</cmt>
    </trkpt>
    <trkpt lat="27.960012" lon="-15.624415">
    <time>1971-01-13T12:58:17Z</time>
  <cmt>extensions = 0.92</cmt>
    </trkpt>
    <trkpt lat="27.959905" lon="-15.624701">
    <time>1971-01-13T12:58:44Z</time>
  <cmt>extensions = 1.11</cmt>
    </trkpt>
    <trkpt lat="27.959927" lon="-15.624825">
    <time>1971-01-13T12:58:55Z</time>
  <cmt>extensions = 0.73</cmt>
    </trkpt>
    <trkpt lat="27.959958" lon="-15.624925">
    <time>1971-01-13T12:59:05Z</time>
  <cmt>extensions = 0.65</cmt>
    </trkpt>
    <trkpt lat="27.959884" lon="-15.625197">
    <time>1971-01-13T12:59:30Z</time>
  <cmt>extensions = 0.86</cmt>
    </trkpt>
    <trkpt lat="27.959883" lon="-15.625315">
    <time>1971-01-13T12:59:40Z</time>
  <cmt>extensions = 0.01</cmt>
    </trkpt>
    <trkpt lat="27.95993" lon="-15.625479">
    <time>1971-01-13T12:59:55Z</time>
  <cmt>extensions = 0.62</cmt>
    </trkpt>
    <trkpt lat="27.959917" lon="-15.625579">
    <time>1971-01-13T13:00:04Z</time>
  <cmt>extensions = 0.60</cmt>
    </trkpt>
    <trkpt lat="27.959978" lon="-15.625641">
    <time>1971-01-13T13:00:13Z</time>
  <cmt>extensions = 0.70</cmt>
    </trkpt>
    <trkpt lat="27.959957" lon="-15.625832">
    <time>1971-01-13T13:00:30Z</time>
  <cmt>extensions = 1.00</cmt>
    </trkpt>
    <trkpt lat="27.959903" lon="-15.625968">
    <time>1971-01-13T13:00:43Z</time>
  <cmt>extensions = 0.98</cmt>
    </trkpt>
    <trkpt lat="27.959973" lon="-15.626015">
    <time>1971-01-13T13:00:51Z</time>
  <cmt>extensions = 0.65</cmt>
    </trkpt>
    <trkpt lat="27.959991" lon="-15.626128">
    <time>1971-01-13T13:01:01Z</time>
  <cmt>extensions = 0.66</cmt>
    </trkpt>
    <trkpt lat="27.959968" lon="-15.626367">
    <time>1971-01-13T13:01:22Z</time>
  <cmt>extensions = 0.70</cmt>
    </trkpt>
    <trkpt lat="27.959795" lon="-15.626339">
    <time>1971-01-13T13:01:40Z</time>
  <cmt>extensions = 0.80</cmt>
    </trkpt>
    <trkpt lat="27.959596" lon="-15.626119">
    <time>1971-01-13T13:02:08Z</time>
  <cmt>extensions = 1.51</cmt>
    </trkpt>
    <trkpt lat="27.959403" lon="-15.625997">
    <time>1971-01-13T13:02:30Z</time>
  <cmt>extensions = 0.41</cmt>
    </trkpt>
    <trkpt lat="27.959325" lon="-15.626126">
    <time>1971-01-13T13:02:43Z</time>
  <cmt>extensions = 0.73</cmt>
    </trkpt>
    <trkpt lat="27.959382" lon="-15.6264">
    <time>1971-01-13T13:03:08Z</time>
  <cmt>extensions = 1.20</cmt>
    </trkpt>
    <trkpt lat="27.959393" lon="-15.626621">
    <time>1971-01-13T13:03:28Z</time>
  <cmt>extensions = 1.28</cmt>
    </trkpt>
    <trkpt lat="27.959437" lon="-15.626864">
    <time>1971-01-13T13:03:50Z</time>
  <cmt>extensions = 1.11</cmt>
    </trkpt>
    <trkpt lat="27.959484" lon="-15.626962">
    <time>1971-01-13T13:04:00Z</time>
  <cmt>extensions = 0.52</cmt>
    </trkpt>
    <trkpt lat="27.959506" lon="-15.627146">
    <time>1971-01-13T13:04:16Z</time>
  <cmt>extensions = 0.48</cmt>
    </trkpt>
    <trkpt lat="27.959586" lon="-15.62742">
    <time>1971-01-13T13:04:42Z</time>
  <cmt>extensions = 1.41</cmt>
    </trkpt>
    <trkpt lat="27.959744" lon="-15.627744">
    <time>1971-01-13T13:05:14Z</time>
  <cmt>extensions = 1.46</cmt>
    </trkpt>
    <trkpt lat="27.961121" lon="-15.629222">
    <time>1971-01-13T13:08:24Z</time>
  <cmt>extensions = 1.41</cmt>
    </trkpt>
    <trkpt lat="27.961415" lon="-15.629404">
    <time>1971-01-13T13:08:58Z</time>
  <cmt>extensions = 1.49</cmt>
    </trkpt>
    <trkpt lat="27.961683" lon="-15.629482">
    <time>1971-01-13T13:09:25Z</time>
  <cmt>extensions = 1.54</cmt>
    </trkpt>
    <trkpt lat="27.96187" lon="-15.629493">
    <time>1971-01-13T13:09:44Z</time>
  <cmt>extensions = 1.23</cmt>
    </trkpt>
    <trkpt lat="27.962119" lon="-15.629483">
    <time>1971-01-13T13:10:09Z</time>
  <cmt>extensions = 0.14</cmt>
    </trkpt>
    <trkpt lat="27.962481" lon="-15.62955">
    <time>1971-01-13T13:10:45Z</time>
  <cmt>extensions = 0.12</cmt>
    </trkpt>
    <trkpt lat="27.962759" lon="-15.629852">
    <time>1971-01-13T13:11:24Z</time>
  <cmt>extensions = 1.34</cmt>
    </trkpt>
    <trkpt lat="27.963026" lon="-15.630014">
    <time>1971-01-13T13:11:54Z</time>
  <cmt>extensions = 1.44</cmt>
    </trkpt>
    <trkpt lat="27.963153" lon="-15.629937">
    <time>1971-01-13T13:12:08Z</time>
  <cmt>extensions = 1.07</cmt>
    </trkpt>
    <trkpt lat="27.963216" lon="-15.629781">
    <time>1971-01-13T13:12:24Z</time>
  <cmt>extensions = 1.41</cmt>
    </trkpt>
    <trkpt lat="27.963406" lon="-15.629448">
    <time>1971-01-13T13:12:59Z</time>
  <cmt>extensions = 1.15</cmt>
    </trkpt>
    <trkpt lat="27.963586" lon="-15.629261">
    <time>1971-01-13T13:13:23Z</time>
  <cmt>extensions = 1.36</cmt>
    </trkpt>
    <trkpt lat="27.963773" lon="-15.628855">
    <time>1971-01-13T13:14:03Z</time>
  <cmt>extensions = 1.43</cmt>
    </trkpt>
    <trkpt lat="27.963847" lon="-15.628762">
    <time>1971-01-13T13:14:15Z</time>
  <cmt>extensions = 1.37</cmt>
    </trkpt>
    <trkpt lat="27.963999" lon="-15.628638">
    <time>1971-01-13T13:14:33Z</time>
  <cmt>extensions = 1.44</cmt>
    </trkpt>
    <trkpt lat="27.964305" lon="-15.628315">
    <time>1971-01-13T13:15:15Z</time>
  <cmt>extensions = 1.86</cmt>
    </trkpt>
    <trkpt lat="27.964383" lon="-15.628018">
    <time>1971-01-13T13:15:42Z</time>
  <cmt>extensions = 1.20</cmt>
    </trkpt>
    <trkpt lat="27.964532" lon="-15.627774">
    <time>1971-01-13T13:16:09Z</time>
  <cmt>extensions = 1.39</cmt>
    </trkpt>
    <trkpt lat="27.964541" lon="-15.627603">
    <time>1971-01-13T13:16:24Z</time>
  <cmt>extensions = 1.95</cmt>
    </trkpt>
    <trkpt lat="27.964773" lon="-15.627499">
    <time>1971-01-13T13:16:49Z</time>
  <cmt>extensions = 1.98</cmt>
    </trkpt>
    <trkpt lat="27.965976" lon="-15.627198">
    <time>1971-01-13T13:18:52Z</time>
  <cmt>extensions = 1.77</cmt>
    </trkpt>
    <trkpt lat="27.966153" lon="-15.627068">
    <time>1971-01-13T13:19:13Z</time>
  <cmt>extensions = 1.68</cmt>
    </trkpt>
    <trkpt lat="27.966346" lon="-15.626991">
    <time>1971-01-13T13:19:33Z</time>
  <cmt>extensions = 1.75</cmt>
    </trkpt>
    <trkpt lat="27.966564" lon="-15.626982">
    <time>1971-01-13T13:19:55Z</time>
  <cmt>extensions = 1.62</cmt>
    </trkpt>
    <trkpt lat="27.966923" lon="-15.626848">
    <time>1971-01-13T13:20:33Z</time>
  <cmt>extensions = 1.64</cmt>
    </trkpt>
    <trkpt lat="27.967158" lon="-15.626573">
    <time>1971-01-13T13:21:06Z</time>
  <cmt>extensions = 1.26</cmt>
    </trkpt>
    <trkpt lat="27.967293" lon="-15.626361">
    <time>1971-01-13T13:21:29Z</time>
  <cmt>extensions = 1.61</cmt>
    </trkpt>
    <trkpt lat="27.967464" lon="-15.626152">
    <time>1971-01-13T13:21:55Z</time>
  <cmt>extensions = 1.27</cmt>
    </trkpt>
    <trkpt lat="27.96757" lon="-15.626065">
    <time>1971-01-13T13:22:08Z</time>
  <cmt>extensions = 1.82</cmt>
    </trkpt>
    <trkpt lat="27.967688" lon="-15.62593">
    <time>1971-01-13T13:22:24Z</time>
  <cmt>extensions = 1.17</cmt>
    </trkpt>
    <trkpt lat="27.967819" lon="-15.625815">
    <time>1971-01-13T13:22:41Z</time>
  <cmt>extensions = 3.13</cmt>
    </trkpt>
    <trkpt lat="27.967928" lon="-15.625751">
    <time>1971-01-13T13:22:53Z</time>
  <cmt>extensions = 1.52</cmt>
    </trkpt>
    <trkpt lat="27.967957" lon="-15.625586">
    <time>1971-01-13T13:23:08Z</time>
  <cmt>extensions = 1.84</cmt>
    </trkpt>
    <trkpt lat="27.968056" lon="-15.625494">
    <time>1971-01-13T13:23:21Z</time>
  <cmt>extensions = 0.83</cmt>
    </trkpt>
    <trkpt lat="27.968165" lon="-15.625447">
    <time>1971-01-13T13:23:32Z</time>
  <cmt>extensions = 1.18</cmt>
    </trkpt>
    <trkpt lat="27.968088" lon="-15.625344">
    <time>1971-01-13T13:23:44Z</time>
  <cmt>extensions = 0.63</cmt>
    </trkpt>
    <trkpt lat="27.968357" lon="-15.625325">
    <time>1971-01-13T13:24:11Z</time>
  <cmt>extensions = 1.72</cmt>
    </trkpt>
    <trkpt lat="27.968525" lon="-15.625176">
    <time>1971-01-13T13:24:33Z</time>
  <cmt>extensions = 0.98</cmt>
    </trkpt>
    <trkpt lat="27.96874" lon="-15.625035">
    <time>1971-01-13T13:24:57Z</time>
  <cmt>extensions = 1.73</cmt>
    </trkpt>
    <trkpt lat="27.968841" lon="-15.624992">
    <time>1971-01-13T13:25:08Z</time>
  <cmt>extensions = 3.00</cmt>
    </trkpt>
    <trkpt lat="27.96903" lon="-15.624786">
    <time>1971-01-13T13:25:34Z</time>
  <cmt>extensions = 1.95</cmt>
    </trkpt>
    <trkpt lat="27.969042" lon="-15.624591">
    <time>1971-01-13T13:25:52Z</time>
  <cmt>extensions = 1.27</cmt>
    </trkpt>
    <trkpt lat="27.969212" lon="-15.624349">
    <time>1971-01-13T13:26:19Z</time>
  <cmt>extensions = 1.38</cmt>
    </trkpt>
    <trkpt lat="27.96927" lon="-15.62419">
    <time>1971-01-13T13:26:34Z</time>
  <cmt>extensions = 1.78</cmt>
    </trkpt>
    <trkpt lat="27.969464" lon="-15.623977">
    <time>1971-01-13T13:27:01Z</time>
  <cmt>extensions = 1.72</cmt>
    </trkpt>
    <trkpt lat="27.969555" lon="-15.623844">
    <time>1971-01-13T13:27:16Z</time>
  <cmt>extensions = 1.18</cmt>
    </trkpt>
    <trkpt lat="27.970068" lon="-15.623498">
    <time>1971-01-13T13:28:16Z</time>
  <cmt>extensions = 1.94</cmt>
    </trkpt>
    <trkpt lat="27.970157" lon="-15.623509">
    <time>1971-01-13T13:28:25Z</time>
  <cmt>extensions = 1.00</cmt>
    </trkpt>
    <trkpt lat="27.970591" lon="-15.623121">
    <time>1971-01-13T13:29:20Z</time>
  <cmt>extensions = 1.61</cmt>
    </trkpt>
    <trkpt lat="27.970727" lon="-15.623073">
    <time>1971-01-13T13:29:34Z</time>
  <cmt>extensions = 1.32</cmt>
    </trkpt>
    <trkpt lat="27.970734" lon="-15.622954">
    <time>1971-01-13T13:29:45Z</time>
  <cmt>extensions = 0.78</cmt>
    </trkpt>
    <trkpt lat="27.970773" lon="-15.622875">
    <time>1971-01-13T13:29:52Z</time>
  <cmt>extensions = 1.78</cmt>
    </trkpt>
    <trkpt lat="27.970874" lon="-15.622748">
    <time>1971-01-13T13:30:08Z</time>
  <cmt>extensions = 1.68</cmt>
    </trkpt>
    <trkpt lat="27.970899" lon="-15.622657">
    <time>1971-01-13T13:30:16Z</time>
  <cmt>extensions = 0.72</cmt>
    </trkpt>
    <trkpt lat="27.970946" lon="-15.622176">
    <time>1971-01-13T13:30:59Z</time>
  <cmt>extensions = 1.21</cmt>
    </trkpt>
    <trkpt lat="27.97093" lon="-15.621944">
    <time>1971-01-13T13:31:19Z</time>
  <cmt>extensions = 1.44</cmt>
    </trkpt>
    <trkpt lat="27.970877" lon="-15.62166">
    <time>1971-01-13T13:31:45Z</time>
  <cmt>extensions = 0.42</cmt>
    </trkpt>
    <trkpt lat="27.97099" lon="-15.621588">
    <time>1971-01-13T13:31:58Z</time>
  <cmt>extensions = 1.11</cmt>
    </trkpt>
    <trkpt lat="27.971055" lon="-15.621428">
    <time>1971-01-13T13:32:14Z</time>
  <cmt>extensions = 1.45</cmt>
    </trkpt>
    <trkpt lat="27.971175" lon="-15.621307">
    <time>1971-01-13T13:32:30Z</time>
  <cmt>extensions = 1.78</cmt>
    </trkpt>
    <trkpt lat="27.97136" lon="-15.621253">
    <time>1971-01-13T13:32:49Z</time>
  <cmt>extensions = 1.48</cmt>
    </trkpt>
    <trkpt lat="27.971531" lon="-15.621278">
    <time>1971-01-13T13:33:06Z</time>
  <cmt>extensions = 1.48</cmt>
    </trkpt>
    <trkpt lat="27.971884" lon="-15.620958">
    <time>1971-01-13T13:33:51Z</time>
  <cmt>extensions = 1.45</cmt>
    </trkpt>
    <trkpt lat="27.972041" lon="-15.620864">
    <time>1971-01-13T13:34:09Z</time>
  <cmt>extensions = 0.94</cmt>
    </trkpt>
    <trkpt lat="27.972126" lon="-15.620794">
    <time>1971-01-13T13:34:19Z</time>
  <cmt>extensions = 0.78</cmt>
    </trkpt>
    <trkpt lat="27.972212" lon="-15.620672">
    <time>1971-01-13T13:34:33Z</time>
  <cmt>extensions = 0.90</cmt>
    </trkpt>
    <trkpt lat="27.972311" lon="-15.620487">
    <time>1971-01-13T13:34:52Z</time>
  <cmt>extensions = 1.18</cmt>
    </trkpt>
    <trkpt lat="27.972616" lon="-15.620201">
    <time>1971-01-13T13:35:32Z</time>
  <cmt>extensions = 2.12</cmt>
    </trkpt>
    <trkpt lat="27.972775" lon="-15.619737">
    <time>1971-01-13T13:36:16Z</time>
  <cmt>extensions = 1.15</cmt>
    </trkpt>
    <trkpt lat="27.972842" lon="-15.619638">
    <time>1971-01-13T13:36:27Z</time>
  <cmt>extensions = 0.94</cmt>
    </trkpt>
    <trkpt lat="27.973136" lon="-15.61956">
    <time>1971-01-13T13:36:57Z</time>
  <cmt>extensions = 1.19</cmt>
    </trkpt>
    <trkpt lat="27.973212" lon="-15.619592">
    <time>1971-01-13T13:37:05Z</time>
  <cmt>extensions = 1.00</cmt>
    </trkpt>
    <trkpt lat="27.973483" lon="-15.619647">
    <time>1971-01-13T13:37:32Z</time>
  <cmt>extensions = 1.42</cmt>
    </trkpt>
    <trkpt lat="27.973595" lon="-15.619762">
    <time>1971-01-13T13:37:48Z</time>
  <cmt>extensions = 1.43</cmt>
    </trkpt>
    <trkpt lat="27.973643" lon="-15.619855">
    <time>1971-01-13T13:37:57Z</time>
  <cmt>extensions = 0.46</cmt>
    </trkpt>
    <trkpt lat="27.973822" lon="-15.620102">
    <time>1971-01-13T13:38:25Z</time>
  <cmt>extensions = 1.06</cmt>
    </trkpt>
    <trkpt lat="27.974038" lon="-15.620063">
    <time>1971-01-13T13:38:47Z</time>
  <cmt>extensions = 0.10</cmt>
    </trkpt>
    <trkpt lat="27.974117" lon="-15.620004">
    <time>1971-01-13T13:38:57Z</time>
  <cmt>extensions = 0.18</cmt>
    </trkpt>
    <trkpt lat="27.974191" lon="-15.619898">
    <time>1971-01-13T13:39:09Z</time>
  <cmt>extensions = 0.63</cmt>
    </trkpt>
    <trkpt lat="27.974398" lon="-15.619727">
    <time>1971-01-13T13:39:34Z</time>
  <cmt>extensions = 1.20</cmt>
    </trkpt>
    <trkpt lat="27.974508" lon="-15.619534">
    <time>1971-01-13T13:39:54Z</time>
  <cmt>extensions = 0.99</cmt>
    </trkpt>
    <trkpt lat="27.974469" lon="-15.619386">
    <time>1971-01-13T13:40:08Z</time>
  <cmt>extensions = 0.95</cmt>
    </trkpt>
    <trkpt lat="27.974653" lon="-15.619358">
    <time>1971-01-13T13:40:27Z</time>
  <cmt>extensions = 1.22</cmt>
    </trkpt>
    <trkpt lat="27.974789" lon="-15.619305">
    <time>1971-01-13T13:40:41Z</time>
  <cmt>extensions = 0.89</cmt>
    </trkpt>
    <trkpt lat="27.974911" lon="-15.619147">
    <time>1971-01-13T13:40:59Z</time>
  <cmt>extensions = 0.53</cmt>
    </trkpt>
    <trkpt lat="27.975164" lon="-15.618039">
    <time>1971-01-13T13:42:41Z</time>
  <cmt>extensions = 1.31</cmt>
    </trkpt>
    <trkpt lat="27.975304" lon="-15.617767">
    <time>1971-01-13T13:43:09Z</time>
  <cmt>extensions = 1.55</cmt>
    </trkpt>
    <trkpt lat="27.975382" lon="-15.617655">
    <time>1971-01-13T13:43:21Z</time>
  <cmt>extensions = 1.40</cmt>
    </trkpt>
    <trkpt lat="27.975397" lon="-15.617562">
    <time>1971-01-13T13:43:29Z</time>
  <cmt>extensions = 0.62</cmt>
    </trkpt>
    <trkpt lat="27.975394" lon="-15.617276">
    <time>1971-01-13T13:43:55Z</time>
  <cmt>extensions = 1.62</cmt>
    </trkpt>
    <trkpt lat="27.975466" lon="-15.617081">
    <time>1971-01-13T13:44:13Z</time>
  <cmt>extensions = 1.48</cmt>
    </trkpt>
    <trkpt lat="27.975534" lon="-15.617023">
    <time>1971-01-13T13:44:22Z</time>
  <cmt>extensions = 1.87</cmt>
    </trkpt>
    <trkpt lat="27.975661" lon="-15.616943">
    <time>1971-01-13T13:44:36Z</time>
  <cmt>extensions = 1.62</cmt>
    </trkpt>
    <trkpt lat="27.976546" lon="-15.616694">
    <time>1971-01-13T13:46:07Z</time>
  <cmt>extensions = 1.44</cmt>
    </trkpt>
    <trkpt lat="27.976831" lon="-15.616674">
    <time>1971-01-13T13:46:36Z</time>
  <cmt>extensions = 1.15</cmt>
    </trkpt>
    <trkpt lat="27.977086" lon="-15.616694">
    <time>1971-01-13T13:47:01Z</time>
  <cmt>extensions = 1.36</cmt>
    </trkpt>
    <trkpt lat="27.9775" lon="-15.616587">
    <time>1971-01-13T13:47:44Z</time>
  <cmt>extensions = 1.22</cmt>
    </trkpt>
    <trkpt lat="27.977692" lon="-15.616592">
    <time>1971-01-13T13:48:03Z</time>
  <cmt>extensions = 0.47</cmt>
    </trkpt>
    <trkpt lat="27.977823" lon="-15.61667">
    <time>1971-01-13T13:48:18Z</time>
  <cmt>extensions = 0.72</cmt>
    </trkpt>
    <trkpt lat="27.977899" lon="-15.616733">
    <time>1971-01-13T13:48:27Z</time>
  <cmt>extensions = 0.70</cmt>
    </trkpt>
    <trkpt lat="27.978006" lon="-15.616715">
    <time>1971-01-13T13:48:38Z</time>
  <cmt>extensions = 0.57</cmt>
    </trkpt>
    <trkpt lat="27.978083" lon="-15.616609">
    <time>1971-01-13T13:48:50Z</time>
  <cmt>extensions = 0.54</cmt>
    </trkpt>
    <trkpt lat="27.978105" lon="-15.616496">
    <time>1971-01-13T13:49:00Z</time>
  <cmt>extensions = 0.41</cmt>
    </trkpt>
    <trkpt lat="27.978183" lon="-15.616465">
    <time>1971-01-13T13:49:08Z</time>
  <cmt>extensions = 0.59</cmt>
    </trkpt>
    <trkpt lat="27.978228" lon="-15.616346">
    <time>1971-01-13T13:49:20Z</time>
  <cmt>extensions = 0.54</cmt>
    </trkpt>
    <trkpt lat="27.978199" lon="-15.616096">
    <time>1971-01-13T13:49:42Z</time>
  <cmt>extensions = 1.03</cmt>
    </trkpt>
    <trkpt lat="27.978212" lon="-15.615903">
    <time>1971-01-13T13:49:59Z</time>
  <cmt>extensions = 0.14</cmt>
    </trkpt>
    <trkpt lat="27.978258" lon="-15.615798">
    <time>1971-01-13T13:50:10Z</time>
  <cmt>extensions = 1.15</cmt>
    </trkpt>
    <trkpt lat="27.978458" lon="-15.61574">
    <time>1971-01-13T13:50:30Z</time>
  <cmt>extensions = 0.98</cmt>
    </trkpt>
    <trkpt lat="27.978563" lon="-15.61573">
    <time>1971-01-13T13:50:41Z</time>
  <cmt>extensions = 1.30</cmt>
    </trkpt>
    <trkpt lat="27.97861" lon="-15.615604">
    <time>1971-01-13T13:50:53Z</time>
  <cmt>extensions = 0.79</cmt>
    </trkpt>
    <trkpt lat="27.978568" lon="-15.615468">
    <time>1971-01-13T13:51:06Z</time>
  <cmt>extensions = 1.38</cmt>
    </trkpt>
    <trkpt lat="27.978559" lon="-15.615294">
    <time>1971-01-13T13:51:21Z</time>
  <cmt>extensions = 1.23</cmt>
    </trkpt>
    <trkpt lat="27.978612" lon="-15.61512">
    <time>1971-01-13T13:51:37Z</time>
  <cmt>extensions = 1.30</cmt>
    </trkpt>
    <trkpt lat="27.978677" lon="-15.615046">
    <time>1971-01-13T13:51:46Z</time>
  <cmt>extensions = 1.14</cmt>
    </trkpt>
    <trkpt lat="27.978996" lon="-15.614938">
    <time>1971-01-13T13:52:20Z</time>
  <cmt>extensions = 0.68</cmt>
    </trkpt>
    <trkpt lat="27.979172" lon="-15.614728">
    <time>1971-01-13T13:52:45Z</time>
  <cmt>extensions = 0.38</cmt>
    </trkpt>
    <trkpt lat="27.979221" lon="-15.614552">
    <time>1971-01-13T13:53:01Z</time>
  <cmt>extensions = 0.91</cmt>
    </trkpt>
    <trkpt lat="27.979199" lon="-15.614443">
    <time>1971-01-13T13:53:11Z</time>
  <cmt>extensions = 1.00</cmt>
    </trkpt>
    <trkpt lat="27.979245" lon="-15.614065">
    <time>1971-01-13T13:53:45Z</time>
  <cmt>extensions = 0.97</cmt>
    </trkpt>
    <trkpt lat="27.979313" lon="-15.613977">
    <time>1971-01-13T13:53:55Z</time>
  <cmt>extensions = 1.20</cmt>
    </trkpt>
    <trkpt lat="27.9794" lon="-15.613906">
    <time>1971-01-13T13:54:06Z</time>
  <cmt>extensions = 1.42</cmt>
    </trkpt>
    <trkpt lat="27.979546" lon="-15.613739">
    <time>1971-01-13T13:54:27Z</time>
  <cmt>extensions = 1.36</cmt>
    </trkpt>
    <trkpt lat="27.97953" lon="-15.613467">
    <time>1971-01-13T13:54:51Z</time>
  <cmt>extensions = 1.32</cmt>
    </trkpt>
    <trkpt lat="27.979592" lon="-15.61331">
    <time>1971-01-13T13:55:06Z</time>
  <cmt>extensions = 1.13</cmt>
    </trkpt>
    <trkpt lat="27.979751" lon="-15.612462">
    <time>1971-01-13T13:56:23Z</time>
  <cmt>extensions = 1.41</cmt>
    </trkpt>
    <trkpt lat="27.979947" lon="-15.612373">
    <time>1971-01-13T13:56:44Z</time>
  <cmt>extensions = 1.68</cmt>
    </trkpt>
    <trkpt lat="27.979989" lon="-15.612258">
    <time>1971-01-13T13:56:55Z</time>
  <cmt>extensions = 1.06</cmt>
    </trkpt>
    <trkpt lat="27.980104" lon="-15.612138">
    <time>1971-01-13T13:57:11Z</time>
  <cmt>extensions = 1.50</cmt>
    </trkpt>
    <trkpt lat="27.980281" lon="-15.612027">
    <time>1971-01-13T13:57:31Z</time>
  <cmt>extensions = 1.41</cmt>
    </trkpt>
    <trkpt lat="27.980412" lon="-15.611824">
    <time>1971-01-13T13:57:53Z</time>
  <cmt>extensions = 1.04</cmt>
    </trkpt>
    <trkpt lat="27.980456" lon="-15.611572">
    <time>1971-01-13T13:58:16Z</time>
  <cmt>extensions = 0.85</cmt>
    </trkpt>
    <trkpt lat="27.980436" lon="-15.611364">
    <time>1971-01-13T13:58:34Z</time>
  <cmt>extensions = 1.15</cmt>
    </trkpt>
    <trkpt lat="27.980504" lon="-15.611169">
    <time>1971-01-13T13:58:53Z</time>
  <cmt>extensions = 1.37</cmt>
    </trkpt>
    <trkpt lat="27.980526" lon="-15.611002">
    <time>1971-01-13T13:59:08Z</time>
  <cmt>extensions = 0.99</cmt>
    </trkpt>
    <trkpt lat="27.980436" lon="-15.610795">
    <time>1971-01-13T13:59:28Z</time>
  <cmt>extensions = 1.51</cmt>
    </trkpt>
    <trkpt lat="27.980444" lon="-15.610703">
    <time>1971-01-13T13:59:36Z</time>
  <cmt>extensions = 0.61</cmt>
    </trkpt>
    <trkpt lat="27.980392" lon="-15.610586">
    <time>1971-01-13T13:59:48Z</time>
  <cmt>extensions = 1.37</cmt>
    </trkpt>
    <trkpt lat="27.980435" lon="-15.61047">
    <time>1971-01-13T13:59:59Z</time>
  <cmt>extensions = 1.77</cmt>
    </trkpt>
    <trkpt lat="27.980441" lon="-15.610259">
    <time>1971-01-13T14:00:17Z</time>
  <cmt>extensions = 1.48</cmt>
    </trkpt>
    <trkpt lat="27.980397" lon="-15.610078">
    <time>1971-01-13T14:00:34Z</time>
  <cmt>extensions = 1.31</cmt>
    </trkpt>
    <trkpt lat="27.980313" lon="-15.610014">
    <time>1971-01-13T14:00:44Z</time>
  <cmt>extensions = 0.87</cmt>
    </trkpt>
    <trkpt lat="27.980251" lon="-15.609864">
    <time>1971-01-13T14:00:59Z</time>
  <cmt>extensions = 1.22</cmt>
    </trkpt>
    <trkpt lat="27.980316" lon="-15.609772">
    <time>1971-01-13T14:01:09Z</time>
  <cmt>extensions = 0.83</cmt>
    </trkpt>
    <trkpt lat="27.980405" lon="-15.609534">
    <time>1971-01-13T14:01:32Z</time>
  <cmt>extensions = 0.93</cmt>
    </trkpt>
    <trkpt lat="27.980436" lon="-15.609356">
    <time>1971-01-13T14:01:48Z</time>
  <cmt>extensions = 0.94</cmt>
    </trkpt>
    <trkpt lat="27.980491" lon="-15.609253">
    <time>1971-01-13T14:01:59Z</time>
  <cmt>extensions = 0.85</cmt>
    </trkpt>
    <trkpt lat="27.980445" lon="-15.609097">
    <time>1971-01-13T14:02:13Z</time>
  <cmt>extensions = 0.85</cmt>
    </trkpt>
    <trkpt lat="27.980462" lon="-15.608771">
    <time>1971-01-13T14:02:42Z</time>
  <cmt>extensions = 0.87</cmt>
    </trkpt>
    <trkpt lat="27.980391" lon="-15.608625">
    <time>1971-01-13T14:02:57Z</time>
  <cmt>extensions = 1.43</cmt>
    </trkpt>
    <trkpt lat="27.98044" lon="-15.608545">
    <time>1971-01-13T14:03:05Z</time>
  <cmt>extensions = 0.51</cmt>
    </trkpt>
    <trkpt lat="27.980429" lon="-15.608381">
    <time>1971-01-13T14:03:20Z</time>
  <cmt>extensions = 1.00</cmt>
    </trkpt>
    <trkpt lat="27.980341" lon="-15.608232">
    <time>1971-01-13T14:03:36Z</time>
  <cmt>extensions = 1.36</cmt>
    </trkpt>
    <trkpt lat="27.979897" lon="-15.607698">
    <time>1971-01-13T14:04:40Z</time>
  <cmt>extensions = 0.70</cmt>
    </trkpt>
    <trkpt lat="27.979757" lon="-15.607466">
    <time>1971-01-13T14:05:05Z</time>
  <cmt>extensions = 1.23</cmt>
    </trkpt>
    <trkpt lat="27.979552" lon="-15.607303">
    <time>1971-01-13T14:05:30Z</time>
  <cmt>extensions = 1.08</cmt>
    </trkpt>
    <trkpt lat="27.979619" lon="-15.607181">
    <time>1971-01-13T14:05:43Z</time>
  <cmt>extensions = 1.18</cmt>
    </trkpt>
    <trkpt lat="27.979632" lon="-15.60685">
    <time>1971-01-13T14:06:12Z</time>
  <cmt>extensions = 1.30</cmt>
    </trkpt>
    <trkpt lat="27.97959" lon="-15.606626">
    <time>1971-01-13T14:06:33Z</time>
  <cmt>extensions = 1.21</cmt>
    </trkpt>
    <trkpt lat="27.979469" lon="-15.606516">
    <time>1971-01-13T14:06:48Z</time>
  <cmt>extensions = 0.95</cmt>
    </trkpt>
    <trkpt lat="27.979387" lon="-15.60648">
    <time>1971-01-13T14:06:57Z</time>
  <cmt>extensions = 0.70</cmt>
    </trkpt>
    <trkpt lat="27.979297" lon="-15.606483">
    <time>1971-01-13T14:07:06Z</time>
  <cmt>extensions = 0.77</cmt>
    </trkpt>
    <trkpt lat="27.979192" lon="-15.606456">
    <time>1971-01-13T14:07:17Z</time>
  <cmt>extensions = 0.80</cmt>
    </trkpt>
    <trkpt lat="27.979182" lon="-15.606366">
    <time>1971-01-13T14:07:25Z</time>
  <cmt>extensions = 0.65</cmt>
    </trkpt>
    <trkpt lat="27.979084" lon="-15.606366">
    <time>1971-01-13T14:07:34Z</time>
  <cmt>extensions = 0.84</cmt>
    </trkpt>
    <trkpt lat="27.978995" lon="-15.606342">
    <time>1971-01-13T14:07:43Z</time>
  <cmt>extensions = 0.73</cmt>
    </trkpt>
    <trkpt lat="27.978751" lon="-15.606099">
    <time>1971-01-13T14:08:16Z</time>
  <cmt>extensions = 1.19</cmt>
    </trkpt>
    <trkpt lat="27.978617" lon="-15.606036">
    <time>1971-01-13T14:08:30Z</time>
  <cmt>extensions = 1.51</cmt>
    </trkpt>
    <trkpt lat="27.9785" lon="-15.60605">
    <time>1971-01-13T14:08:42Z</time>
  <cmt>extensions = 1.09</cmt>
    </trkpt>
    <trkpt lat="27.9783" lon="-15.605687">
    <time>1971-01-13T14:09:20Z</time>
  <cmt>extensions = 1.38</cmt>
    </trkpt>
    <trkpt lat="27.978116" lon="-15.605539">
    <time>1971-01-13T14:09:43Z</time>
  <cmt>extensions = 1.32</cmt>
    </trkpt>
    <trkpt lat="27.978048" lon="-15.60542">
    <time>1971-01-13T14:09:55Z</time>
  <cmt>extensions = 0.77</cmt>
    </trkpt>
    <trkpt lat="27.978051" lon="-15.605316">
    <time>1971-01-13T14:10:04Z</time>
  <cmt>extensions = 1.09</cmt>
    </trkpt>
    <trkpt lat="27.977945" lon="-15.605173">
    <time>1971-01-13T14:10:21Z</time>
  <cmt>extensions = 0.86</cmt>
    </trkpt>
    <trkpt lat="27.977873" lon="-15.604907">
    <time>1971-01-13T14:10:45Z</time>
  <cmt>extensions = 1.25</cmt>
    </trkpt>
    <trkpt lat="27.977791" lon="-15.604791">
    <time>1971-01-13T14:10:58Z</time>
  <cmt>extensions = 0.97</cmt>
    </trkpt>
    <trkpt lat="27.977577" lon="-15.60482">
    <time>1971-01-13T14:11:20Z</time>
  <cmt>extensions = 0.57</cmt>
    </trkpt>
    <trkpt lat="27.977457" lon="-15.604758">
    <time>1971-01-13T14:11:33Z</time>
  <cmt>extensions = 0.47</cmt>
    </trkpt>
    <trkpt lat="27.97716" lon="-15.604752">
    <time>1971-01-13T14:12:03Z</time>
  <cmt>extensions = 0.81</cmt>
    </trkpt>
    <trkpt lat="27.976983" lon="-15.604811">
    <time>1971-01-13T14:12:21Z</time>
  <cmt>extensions = 0.94</cmt>
    </trkpt>
    <trkpt lat="27.976801" lon="-15.604682">
    <time>1971-01-13T14:12:43Z</time>
  <cmt>extensions = 0.86</cmt>
    </trkpt>
    <trkpt lat="27.976641" lon="-15.604645">
    <time>1971-01-13T14:12:59Z</time>
  <cmt>extensions = 0.62</cmt>
    </trkpt>
    <trkpt lat="27.976537" lon="-15.60453">
    <time>1971-01-13T14:13:13Z</time>
  <cmt>extensions = 0.76</cmt>
    </trkpt>
    <trkpt lat="27.97655" lon="-15.60436">
    <time>1971-01-13T14:13:28Z</time>
  <cmt>extensions = 0.88</cmt>
    </trkpt>
    <trkpt lat="27.976611" lon="-15.604262">
    <time>1971-01-13T14:13:39Z</time>
  <cmt>extensions = 1.66</cmt>
    </trkpt>
    <trkpt lat="27.976756" lon="-15.603955">
    <time>1971-01-13T14:14:10Z</time>
  <cmt>extensions = 1.47</cmt>
    </trkpt>
    <trkpt lat="27.976766" lon="-15.603782">
    <time>1971-01-13T14:14:25Z</time>
  <cmt>extensions = 1.00</cmt>
    </trkpt>
    <trkpt lat="27.976899" lon="-15.603765">
    <time>1971-01-13T14:14:38Z</time>
  <cmt>extensions = 1.86</cmt>
    </trkpt>
    <trkpt lat="27.976827" lon="-15.603675">
    <time>1971-01-13T14:14:49Z</time>
  <cmt>extensions = 1.71</cmt>
    </trkpt>
    <trkpt lat="27.97686" lon="-15.603497">
    <time>1971-01-13T14:15:05Z</time>
  <cmt>extensions = 1.28</cmt>
    </trkpt>
    <trkpt lat="27.97686" lon="-15.603356">
    <time>1971-01-13T14:15:18Z</time>
  <cmt>extensions = 1.21</cmt>
    </trkpt>
    <trkpt lat="27.976784" lon="-15.603111">
    <time>1971-01-13T14:15:41Z</time>
  <cmt>extensions = 0.34</cmt>
    </trkpt>
    <trkpt lat="27.976715" lon="-15.603002">
    <time>1971-01-13T14:15:53Z</time>
  <cmt>extensions = 0.08</cmt>
    </trkpt>
    <trkpt lat="27.976564" lon="-15.60304">
    <time>1971-01-13T14:16:08Z</time>
  <cmt>extensions = 0.73</cmt>
    </trkpt>
    <trkpt lat="27.976462" lon="-15.603113">
    <time>1971-01-13T14:16:20Z</time>
  <cmt>extensions = 0.96</cmt>
    </trkpt>
    <trkpt lat="27.976356" lon="-15.603214">
    <time>1971-01-13T14:16:34Z</time>
  <cmt>extensions = 0.86</cmt>
    </trkpt>
    <trkpt lat="27.976191" lon="-15.603265">
    <time>1971-01-13T14:16:51Z</time>
  <cmt>extensions = 1.00</cmt>
    </trkpt>
    <trkpt lat="27.975936" lon="-15.603263">
    <time>1971-01-13T14:17:16Z</time>
  <cmt>extensions = 1.26</cmt>
    </trkpt>
    <trkpt lat="27.975839" lon="-15.603191">
    <time>1971-01-13T14:17:28Z</time>
  <cmt>extensions = 1.04</cmt>
    </trkpt>
    <trkpt lat="27.975761" lon="-15.602577">
    <time>1971-01-13T14:18:23Z</time>
  <cmt>extensions = 1.12</cmt>
    </trkpt>
    <trkpt lat="27.9758" lon="-15.602424">
    <time>1971-01-13T14:18:37Z</time>
  <cmt>extensions = 1.12</cmt>
    </trkpt>
    <trkpt lat="27.975652" lon="-15.60238">
    <time>1971-01-13T14:18:52Z</time>
  <cmt>extensions = 0.93</cmt>
    </trkpt>
    <trkpt lat="27.975569" lon="-15.602306">
    <time>1971-01-13T14:19:03Z</time>
  <cmt>extensions = 1.08</cmt>
    </trkpt>
    <trkpt lat="27.975465" lon="-15.602177">
    <time>1971-01-13T14:19:18Z</time>
  <cmt>extensions = 0.90</cmt>
    </trkpt>
    <trkpt lat="27.975366" lon="-15.602098">
    <time>1971-01-13T14:19:30Z</time>
  <cmt>extensions = 0.79</cmt>
    </trkpt>
    <trkpt lat="27.975173" lon="-15.602079">
    <time>1971-01-13T14:19:49Z</time>
  <cmt>extensions = 1.02</cmt>
    </trkpt>
    <trkpt lat="27.975009" lon="-15.601939">
    <time>1971-01-13T14:20:10Z</time>
  <cmt>extensions = 0.69</cmt>
    </trkpt>
    <trkpt lat="27.974747" lon="-15.601951">
    <time>1971-01-13T14:20:36Z</time>
  <cmt>extensions = 0.80</cmt>
    </trkpt>
    <trkpt lat="27.974647" lon="-15.601926">
    <time>1971-01-13T14:20:46Z</time>
  <cmt>extensions = 0.76</cmt>
    </trkpt>
    <trkpt lat="27.974552" lon="-15.601772">
    <time>1971-01-13T14:21:03Z</time>
  <cmt>extensions = 1.17</cmt>
    </trkpt>
    <trkpt lat="27.974546" lon="-15.601619">
    <time>1971-01-13T14:21:16Z</time>
  <cmt>extensions = 0.27</cmt>
    </trkpt>
    <trkpt lat="27.974488" lon="-15.601504">
    <time>1971-01-13T14:21:28Z</time>
  <cmt>extensions = 1.08</cmt>
    </trkpt>
    <trkpt lat="27.974375" lon="-15.601414">
    <time>1971-01-13T14:21:42Z</time>
  <cmt>extensions = 0.67</cmt>
    </trkpt>
    <trkpt lat="27.974303" lon="-15.601307">
    <time>1971-01-13T14:21:54Z</time>
  <cmt>extensions = 1.02</cmt>
    </trkpt>
    <trkpt lat="27.974171" lon="-15.601276">
    <time>1971-01-13T14:22:07Z</time>
  <cmt>extensions = 0.80</cmt>
    </trkpt>
    <trkpt lat="27.973955" lon="-15.601189">
    <time>1971-01-13T14:22:30Z</time>
  <cmt>extensions = 1.34</cmt>
    </trkpt>
    <trkpt lat="27.973926" lon="-15.60103">
    <time>1971-01-13T14:22:44Z</time>
  <cmt>extensions = 0.76</cmt>
    </trkpt>
    <trkpt lat="27.973994" lon="-15.600779">
    <time>1971-01-13T14:23:08Z</time>
  <cmt>extensions = 0.15</cmt>
    </trkpt>
    <trkpt lat="27.973923" lon="-15.600451">
    <time>1971-01-13T14:23:38Z</time>
  <cmt>extensions = 1.33</cmt>
    </trkpt>
    <trkpt lat="27.973898" lon="-15.600195">
    <time>1971-01-13T14:24:00Z</time>
  <cmt>extensions = 1.27</cmt>
    </trkpt>
    <trkpt lat="27.97375" lon="-15.599879">
    <time>1971-01-13T14:24:32Z</time>
  <cmt>extensions = 0.72</cmt>
    </trkpt>
    <trkpt lat="27.973786" lon="-15.599758">
    <time>1971-01-13T14:24:43Z</time>
  <cmt>extensions = 0.60</cmt>
    </trkpt>
    <trkpt lat="27.973659" lon="-15.599724">
    <time>1971-01-13T14:24:56Z</time>
  <cmt>extensions = 0.88</cmt>
    </trkpt>
    <trkpt lat="27.973506" lon="-15.599633">
    <time>1971-01-13T14:25:14Z</time>
  <cmt>extensions = 0.60</cmt>
    </trkpt>
    <trkpt lat="27.973169" lon="-15.599445">
    <time>1971-01-13T14:25:51Z</time>
  <cmt>extensions = 0.50</cmt>
    </trkpt>
    <trkpt lat="27.972954" lon="-15.599569">
    <time>1971-01-13T14:26:15Z</time>
  <cmt>extensions = 0.53</cmt>
    </trkpt>
    <trkpt lat="27.972887" lon="-15.599697">
    <time>1971-01-13T14:26:28Z</time>
  <cmt>extensions = 1.01</cmt>
    </trkpt>
    <trkpt lat="27.972695" lon="-15.599817">
    <time>1971-01-13T14:26:50Z</time>
  <cmt>extensions = 1.44</cmt>
    </trkpt>
    <trkpt lat="27.972584" lon="-15.599925">
    <time>1971-01-13T14:27:05Z</time>
  <cmt>extensions = 0.86</cmt>
    </trkpt>
    <trkpt lat="27.972496" lon="-15.59993">
    <time>1971-01-13T14:27:14Z</time>
  <cmt>extensions = 0.49</cmt>
    </trkpt>
    <trkpt lat="27.972431" lon="-15.59987">
    <time>1971-01-13T14:27:22Z</time>
  <cmt>extensions = 0.52</cmt>
    </trkpt>
    <trkpt lat="27.972179" lon="-15.599967">
    <time>1971-01-13T14:27:48Z</time>
  <cmt>extensions = 0.66</cmt>
    </trkpt>
    <trkpt lat="27.972026" lon="-15.599963">
    <time>1971-01-13T14:28:04Z</time>
  <cmt>extensions = 0.54</cmt>
    </trkpt>
    <trkpt lat="27.971856" lon="-15.599792">
    <time>1971-01-13T14:28:26Z</time>
  <cmt>extensions = 0.43</cmt>
    </trkpt>
    <trkpt lat="27.971811" lon="-15.599706">
    <time>1971-01-13T14:28:35Z</time>
  <cmt>extensions = 0.48</cmt>
    </trkpt>
    <trkpt lat="27.971662" lon="-15.599672">
    <time>1971-01-13T14:28:50Z</time>
  <cmt>extensions = 0.56</cmt>
    </trkpt>
    <trkpt lat="27.971509" lon="-15.599683">
    <time>1971-01-13T14:29:06Z</time>
  <cmt>extensions = 0.55</cmt>
    </trkpt>
    <trkpt lat="27.971504" lon="-15.599589">
    <time>1971-01-13T14:29:14Z</time>
  <cmt>extensions = 0.39</cmt>
    </trkpt>
    <trkpt lat="27.971398" lon="-15.599525">
    <time>1971-01-13T14:29:26Z</time>
  <cmt>extensions = 0.23</cmt>
    </trkpt>
    <trkpt lat="27.971216" lon="-15.5995">
    <time>1971-01-13T14:29:44Z</time>
  <cmt>extensions = 0.89</cmt>
    </trkpt>
    <trkpt lat="27.971123" lon="-15.599673">
    <time>1971-01-13T14:30:02Z</time>
  <cmt>extensions = 0.90</cmt>
    </trkpt>
    <trkpt lat="27.971034" lon="-15.599794">
    <time>1971-01-13T14:30:16Z</time>
  <cmt>extensions = 0.81</cmt>
    </trkpt>
    <trkpt lat="27.970992" lon="-15.599636">
    <time>1971-01-13T14:30:31Z</time>
  <cmt>extensions = 0.53</cmt>
    </trkpt>
    <trkpt lat="27.971089" lon="-15.599424">
    <time>1971-01-13T14:30:52Z</time>
  <cmt>extensions = 0.73</cmt>
    </trkpt>
    <trkpt lat="27.971152" lon="-15.59937">
    <time>1971-01-13T14:31:00Z</time>
  <cmt>extensions = 0.55</cmt>
    </trkpt>
    <trkpt lat="27.971268" lon="-15.599297">
    <time>1971-01-13T14:31:13Z</time>
  <cmt>extensions = 0.78</cmt>
    </trkpt>
    <trkpt lat="27.971169" lon="-15.599065">
    <time>1971-01-13T14:31:36Z</time>
  <cmt>extensions = 0.74</cmt>
    </trkpt>
    <trkpt lat="27.971119" lon="-15.599142">
    <time>1971-01-13T14:31:44Z</time>
  <cmt>extensions = 0.49</cmt>
    </trkpt>
    <trkpt lat="27.970719" lon="-15.599306">
    <time>1971-01-13T14:32:27Z</time>
  <cmt>extensions = 0.95</cmt>
    </trkpt>
    <trkpt lat="27.970641" lon="-15.599378">
    <time>1971-01-13T14:32:37Z</time>
  <cmt>extensions = 0.47</cmt>
    </trkpt>
    <trkpt lat="27.970628" lon="-15.599506">
    <time>1971-01-13T14:32:48Z</time>
  <cmt>extensions = 0.63</cmt>
    </trkpt>
    <trkpt lat="27.97048" lon="-15.599476">
    <time>1971-01-13T14:33:03Z</time>
  <cmt>extensions = 0.64</cmt>
    </trkpt>
    <trkpt lat="27.970368" lon="-15.599606">
    <time>1971-01-13T14:33:19Z</time>
  <cmt>extensions = 0.48</cmt>
    </trkpt>
    <trkpt lat="27.970283" lon="-15.599632">
    <time>1971-01-13T14:33:28Z</time>
  <cmt>extensions = 0.41</cmt>
    </trkpt>
    <trkpt lat="27.970235" lon="-15.599744">
    <time>1971-01-13T14:33:39Z</time>
  <cmt>extensions = 0.61</cmt>
    </trkpt>
    <trkpt lat="27.970162" lon="-15.599853">
    <time>1971-01-13T14:33:51Z</time>
  <cmt>extensions = 0.64</cmt>
    </trkpt>
    <trkpt lat="27.970134" lon="-15.599975">
    <time>1971-01-13T14:34:02Z</time>
  <cmt>extensions = 0.77</cmt>
    </trkpt>
    <trkpt lat="27.970058" lon="-15.600039">
    <time>1971-01-13T14:34:11Z</time>
  <cmt>extensions = 0.48</cmt>
    </trkpt>
    <trkpt lat="27.969984" lon="-15.600221">
    <time>1971-01-13T14:34:29Z</time>
  <cmt>extensions = 0.19</cmt>
    </trkpt>
    <trkpt lat="27.969881" lon="-15.600226">
    <time>1971-01-13T14:34:39Z</time>
  <cmt>extensions = 0.72</cmt>
    </trkpt>
    <trkpt lat="27.969822" lon="-15.600289">
    <time>1971-01-13T14:34:47Z</time>
  <cmt>extensions = 0.50</cmt>
    </trkpt>
    <trkpt lat="27.969611" lon="-15.600382">
    <time>1971-01-13T14:35:10Z</time>
  <cmt>extensions = 0.84</cmt>
    </trkpt>
    <trkpt lat="27.969532" lon="-15.600503">
    <time>1971-01-13T14:35:23Z</time>
  <cmt>extensions = 0.78</cmt>
    </trkpt>
    <trkpt lat="27.969447" lon="-15.600464">
    <time>1971-01-13T14:35:32Z</time>
  <cmt>extensions = 0.41</cmt>
    </trkpt>
    <trkpt lat="27.969324" lon="-15.60031">
    <time>1971-01-13T14:35:51Z</time>
  <cmt>extensions = 0.65</cmt>
    </trkpt>
    <trkpt lat="27.969184" lon="-15.600216">
    <time>1971-01-13T14:36:07Z</time>
  <cmt>extensions = 0.23</cmt>
    </trkpt>
    <trkpt lat="27.969096" lon="-15.600184">
    <time>1971-01-13T14:36:16Z</time>
  <cmt>extensions = 0.41</cmt>
    </trkpt>
    <trkpt lat="27.968963" lon="-15.600366">
    <time>1971-01-13T14:36:37Z</time>
  <cmt>extensions = 0.93</cmt>
    </trkpt>
    <trkpt lat="27.968798" lon="-15.600511">
    <time>1971-01-13T14:36:58Z</time>
  <cmt>extensions = 0.58</cmt>
    </trkpt>
    <trkpt lat="27.968776" lon="-15.600618">
    <time>1971-01-13T14:37:08Z</time>
  <cmt>extensions = 0.34</cmt>
    </trkpt>
    <trkpt lat="27.968723" lon="-15.600716">
    <time>1971-01-13T14:37:18Z</time>
  <cmt>extensions = 0.56</cmt>
    </trkpt>
    <trkpt lat="27.968626" lon="-15.600615">
    <time>1971-01-13T14:37:31Z</time>
  <cmt>extensions = 0.61</cmt>
    </trkpt>
    <trkpt lat="27.968558" lon="-15.600453">
    <time>1971-01-13T14:37:47Z</time>
  <cmt>extensions = 0.49</cmt>
    </trkpt>
    <trkpt lat="27.968529" lon="-15.600585">
    <time>1971-01-13T14:37:59Z</time>
  <cmt>extensions = 0.52</cmt>
    </trkpt>
    <trkpt lat="27.968367" lon="-15.600635">
    <time>1971-01-13T14:38:16Z</time>
  <cmt>extensions = 0.85</cmt>
    </trkpt>
    <trkpt lat="27.968255" lon="-15.600612">
    <time>1971-01-13T14:38:27Z</time>
  <cmt>extensions = 0.55</cmt>
    </trkpt>
    <trkpt lat="27.968059" lon="-15.600673">
    <time>1971-01-13T14:38:47Z</time>
  <cmt>extensions = 1.13</cmt>
    </trkpt>
    <trkpt lat="27.967879" lon="-15.600586">
    <time>1971-01-13T14:39:07Z</time>
  <cmt>extensions = 0.73</cmt>
    </trkpt>
    <trkpt lat="27.967853" lon="-15.60074">
    <time>1971-01-13T14:39:21Z</time>
  <cmt>extensions = 0.57</cmt>
    </trkpt>
    <trkpt lat="27.967658" lon="-15.600657">
    <time>1971-01-13T14:39:41Z</time>
  <cmt>extensions = 0.89</cmt>
    </trkpt>
    <trkpt lat="27.96756" lon="-15.600512">
    <time>1971-01-13T14:39:57Z</time>
  <cmt>extensions = 0.28</cmt>
    </trkpt>
    <trkpt lat="27.967478" lon="-15.600452">
    <time>1971-01-13T14:40:07Z</time>
  <cmt>extensions = 0.39</cmt>
    </trkpt>
    <trkpt lat="27.967421" lon="-15.600646">
    <time>1971-01-13T14:40:25Z</time>
  <cmt>extensions = 0.48</cmt>
    </trkpt>
    <trkpt lat="27.967445" lon="-15.600835">
    <time>1971-01-13T14:40:42Z</time>
  <cmt>extensions = 0.89</cmt>
    </trkpt>
    <trkpt lat="27.96743" lon="-15.600931">
    <time>1971-01-13T14:40:51Z</time>
  <cmt>extensions = 0.48</cmt>
    </trkpt>
    <trkpt lat="27.967368" lon="-15.600824">
    <time>1971-01-13T14:41:02Z</time>
  <cmt>extensions = 0.63</cmt>
    </trkpt>
    <trkpt lat="27.967409" lon="-15.600987">
    <time>1971-01-13T14:41:17Z</time>
  <cmt>extensions = 0.79</cmt>
    </trkpt>
    <trkpt lat="27.967519" lon="-15.601119">
    <time>1971-01-13T14:41:33Z</time>
  <cmt>extensions = 0.73</cmt>
    </trkpt>
    <trkpt lat="27.967537" lon="-15.601222">
    <time>1971-01-13T14:41:42Z</time>
  <cmt>extensions = 0.57</cmt>
    </trkpt>
    <trkpt lat="27.967632" lon="-15.601362">
    <time>1971-01-13T14:41:58Z</time>
  <cmt>extensions = 0.46</cmt>
    </trkpt>
    <trkpt lat="27.967442" lon="-15.6013">
    <time>1971-01-13T14:42:18Z</time>
  <cmt>extensions = 0.50</cmt>
    </trkpt>
    <trkpt lat="27.967311" lon="-15.601336">
    <time>1971-01-13T14:42:31Z</time>
  <cmt>extensions = 0.54</cmt>
    </trkpt>
    <trkpt lat="27.967226" lon="-15.601275">
    <time>1971-01-13T14:42:41Z</time>
  <cmt>extensions = 0.47</cmt>
    </trkpt>
    <trkpt lat="27.967109" lon="-15.601319">
    <time>1971-01-13T14:42:53Z</time>
  <cmt>extensions = 0.88</cmt>
    </trkpt>
    <trkpt lat="27.967131" lon="-15.601448">
    <time>1971-01-13T14:43:05Z</time>
  <cmt>extensions = 0.43</cmt>
    </trkpt>
    <trkpt lat="27.96701" lon="-15.601384">
    <time>1971-01-13T14:43:18Z</time>
  <cmt>extensions = 0.37</cmt>
    </trkpt>
    <trkpt lat="27.966853" lon="-15.601331">
    <time>1971-01-13T14:43:35Z</time>
  <cmt>extensions = 0.54</cmt>
    </trkpt>
    <trkpt lat="27.966689" lon="-15.601192">
    <time>1971-01-13T14:43:55Z</time>
  <cmt>extensions = 0.50</cmt>
    </trkpt>
    <trkpt lat="27.966553" lon="-15.601468">
    <time>1971-01-13T14:44:23Z</time>
  <cmt>extensions = 0.33</cmt>
    </trkpt>
    <trkpt lat="27.966449" lon="-15.601406">
    <time>1971-01-13T14:44:35Z</time>
  <cmt>extensions = 0.73</cmt>
    </trkpt>
    <trkpt lat="27.96637" lon="-15.601448">
    <time>1971-01-13T14:44:43Z</time>
  <cmt>extensions = 0.40</cmt>
    </trkpt>
    <trkpt lat="27.966288" lon="-15.601477">
    <time>1971-01-13T14:44:52Z</time>
  <cmt>extensions = 0.27</cmt>
    </trkpt>
    <trkpt lat="27.966178" lon="-15.601431">
    <time>1971-01-13T14:45:04Z</time>
  <cmt>extensions = 0.60</cmt>
    </trkpt>
    <trkpt lat="27.966073" lon="-15.601516">
    <time>1971-01-13T14:45:17Z</time>
  <cmt>extensions = 0.38</cmt>
    </trkpt>
    <trkpt lat="27.966115" lon="-15.601619">
    <time>1971-01-13T14:45:27Z</time>
  <cmt>extensions = 0.62</cmt>
    </trkpt>
    <trkpt lat="27.965993" lon="-15.601586">
    <time>1971-01-13T14:45:39Z</time>
  <cmt>extensions = 0.50</cmt>
    </trkpt>
    <trkpt lat="27.965843" lon="-15.601599">
    <time>1971-01-13T14:45:54Z</time>
  <cmt>extensions = 0.45</cmt>
    </trkpt>
    <trkpt lat="27.965824" lon="-15.601729">
    <time>1971-01-13T14:46:06Z</time>
  <cmt>extensions = 0.02</cmt>
    </trkpt>
  </trkseg>
</trk>
</gpx>
